sensor_id;sensor_type;location;lat;lon;timestamp;pressure;altitude;pressure_sealevel;temperature;humidity
64460;BME280;50828;53.756;21.140;2023-01-30T00:02:18;99080.77;;;0.88;76.19
64460;BME280;50828;53.756;21.140;2023-01-30T00:07:26;99063.52;;;0.83;75.80
64460;BME280;50828;53.756;21.140;2023-01-30T00:12:34;99053.14;;;0.83;76.09
64460;BME280;50828;53.756;21.140;2023-01-30T00:17:42;99039.60;;;0.83;76.27
64460;BME280;50828;53.756;21.140;2023-01-30T00:22:49;99023.10;;;0.86;76.30
64460;BME280;50828;53.756;21.140;2023-01-30T00:28:05;99012.19;;;0.85;76.35
64460;BME280;50828;53.756;21.140;2023-01-30T00:33:13;99000.30;;;0.90;76.27
64460;BME280;50828;53.756;21.140;2023-01-30T00:38:21;98985.05;;;0.90;76.15
64460;BME280;50828;53.756;21.140;2023-01-30T00:43:29;98973.42;;;0.91;76.18
64460;BME280;50828;53.756;21.140;2023-01-30T00:48:54;98967.01;;;0.91;76.24
64460;BME280;50828;53.756;21.140;2023-01-30T00:54:02;98956.42;;;0.90;76.13
64460;BME280;50828;53.756;21.140;2023-01-30T00:59:10;98950.94;;;0.88;76.08
64460;BME280;50828;53.756;21.140;2023-01-30T01:04:18;98932.48;;;0.83;76.14
64460;BME280;50828;53.756;21.140;2023-01-30T01:09:26;98927.92;;;0.86;76.21
64460;BME280;50828;53.756;21.140;2023-01-30T01:14:34;98912.42;;;0.81;75.98
64460;BME280;50828;53.756;21.140;2023-01-30T01:19:42;98899.15;;;0.77;76.14
64460;BME280;50828;53.756;21.140;2023-01-30T01:24:50;98887.60;;;0.74;76.17
64460;BME280;50828;53.756;21.140;2023-01-30T01:29:58;98874.54;;;0.69;76.13
64460;BME280;50828;53.756;21.140;2023-01-30T01:35:08;98861.40;;;0.67;76.27
64460;BME280;50828;53.756;21.140;2023-01-30T01:40:19;98850.02;;;0.64;76.39
64460;BME280;50828;53.756;21.140;2023-01-30T01:45:46;98835.40;;;0.67;76.69
64460;BME280;50828;53.756;21.140;2023-01-30T01:50:59;98820.32;;;0.68;76.31
64460;BME280;50828;53.756;21.140;2023-01-30T01:56:11;98818.57;;;0.68;76.36
64460;BME280;50828;53.756;21.140;2023-01-30T02:01:21;98808.02;;;0.68;76.31
64460;BME280;50828;53.756;21.140;2023-01-30T02:06:31;98787.95;;;0.66;76.54
64460;BME280;50828;53.756;21.140;2023-01-30T02:11:44;98771.18;;;0.72;76.70
64460;BME280;50828;53.756;21.140;2023-01-30T02:16:54;98762.09;;;0.77;76.57
64460;BME280;50828;53.756;21.140;2023-01-30T02:22:23;98758.36;;;0.80;76.32
64460;BME280;50828;53.756;21.140;2023-01-30T02:27:56;98731.02;;;0.78;76.33
64460;BME280;50828;53.756;21.140;2023-01-30T02:33:18;98709.06;;;0.76;76.39
64460;BME280;50828;53.756;21.140;2023-01-30T02:38:34;98704.75;;;0.75;76.42
64460;BME280;50828;53.756;21.140;2023-01-30T02:43:52;98689.70;;;0.74;76.21
64460;BME280;50828;53.756;21.140;2023-01-30T02:49:08;98672.14;;;0.69;76.44
64460;BME280;50828;53.756;21.140;2023-01-30T02:54:19;98655.02;;;0.68;76.32
64460;BME280;50828;53.756;21.140;2023-01-30T02:59:30;98644.77;;;0.68;76.44
64460;BME280;50828;53.756;21.140;2023-01-30T03:04:51;98628.98;;;0.68;76.50
64460;BME280;50828;53.756;21.140;2023-01-30T03:10:08;98621.55;;;0.68;76.46
64460;BME280;50828;53.756;21.140;2023-01-30T03:15:29;98613.38;;;0.70;76.59
64460;BME280;50828;53.756;21.140;2023-01-30T03:20:39;98596.20;;;0.70;76.49
64460;BME280;50828;53.756;21.140;2023-01-30T03:25:48;98588.02;;;0.72;76.67
64460;BME280;50828;53.756;21.140;2023-01-30T03:30:56;98579.62;;;0.75;76.42
64460;BME280;50828;53.756;21.140;2023-01-30T03:36:04;98561.28;;;0.74;76.25
64460;BME280;50828;53.756;21.140;2023-01-30T03:41:12;98554.97;;;0.76;76.31
64460;BME280;50828;53.756;21.140;2023-01-30T03:46:20;98542.84;;;0.77;76.20
64460;BME280;50828;53.756;21.140;2023-01-30T03:51:29;98520.98;;;0.78;76.28
64460;BME280;50828;53.756;21.140;2023-01-30T03:56:36;98512.54;;;0.76;76.07
64460;BME280;50828;53.756;21.140;2023-01-30T04:01:45;98500.83;;;0.73;76.22
64460;BME280;50828;53.756;21.140;2023-01-30T04:06:54;98489.30;;;0.70;76.21
64460;BME280;50828;53.756;21.140;2023-01-30T04:12:03;98462.46;;;0.69;76.22
64460;BME280;50828;53.756;21.140;2023-01-30T04:17:15;98455.52;;;0.70;76.08
64460;BME280;50828;53.756;21.140;2023-01-30T04:22:24;98446.35;;;0.69;76.09
64460;BME280;50828;53.756;21.140;2023-01-30T04:27:33;98418.34;;;0.66;76.19
64460;BME280;50828;53.756;21.140;2023-01-30T04:32:53;98411.41;;;0.66;76.25
64460;BME280;50828;53.756;21.140;2023-01-30T04:38:01;98416.16;;;0.64;76.06
64460;BME280;50828;53.756;21.140;2023-01-30T04:43:09;98422.79;;;0.62;76.26
64460;BME280;50828;53.756;21.140;2023-01-30T04:48:47;98419.08;;;0.59;76.25
64460;BME280;50828;53.756;21.140;2023-01-30T04:53:56;98408.77;;;0.55;76.14
64460;BME280;50828;53.756;21.140;2023-01-30T04:59:04;98405.87;;;0.54;76.30
64460;BME280;50828;53.756;21.140;2023-01-30T05:04:17;98395.63;;;0.54;76.31
64460;BME280;50828;53.756;21.140;2023-01-30T05:09:25;98386.45;;;0.54;76.24
64460;BME280;50828;53.756;21.140;2023-01-30T05:14:34;98367.83;;;0.58;76.31
64460;BME280;50828;53.756;21.140;2023-01-30T05:19:42;98354.41;;;0.60;76.36
64460;BME280;50828;53.756;21.140;2023-01-30T05:24:51;98335.83;;;0.62;76.15
64460;BME280;50828;53.756;21.140;2023-01-30T05:29:59;98318.34;;;0.62;76.00
64460;BME280;50828;53.756;21.140;2023-01-30T05:35:09;98309.02;;;0.60;76.09
64460;BME280;50828;53.756;21.140;2023-01-30T05:40:18;98301.29;;;0.58;76.16
64460;BME280;50828;53.756;21.140;2023-01-30T05:45:26;98294.77;;;0.56;76.24
64460;BME280;50828;53.756;21.140;2023-01-30T05:50:34;98283.30;;;0.51;76.09
64460;BME280;50828;53.756;21.140;2023-01-30T05:55:42;98270.00;;;0.49;76.20
64460;BME280;50828;53.756;21.140;2023-01-30T06:00:50;98269.95;;;0.51;76.28
64460;BME280;50828;53.756;21.140;2023-01-30T06:05:59;98279.88;;;0.55;76.08
64460;BME280;50828;53.756;21.140;2023-01-30T06:11:09;98269.84;;;0.55;76.13
64460;BME280;50828;53.756;21.140;2023-01-30T06:16:17;98258.02;;;0.50;76.14
64460;BME280;50828;53.756;21.140;2023-01-30T06:21:26;98242.77;;;0.51;76.23
64460;BME280;50828;53.756;21.140;2023-01-30T06:26:34;98234.51;;;0.49;76.20
64460;BME280;50828;53.756;21.140;2023-01-30T06:31:42;98225.03;;;0.47;76.05
64460;BME280;50828;53.756;21.140;2023-01-30T06:36:51;98215.03;;;0.45;76.16
64460;BME280;50828;53.756;21.140;2023-01-30T06:41:58;98197.44;;;0.44;76.20
64460;BME280;50828;53.756;21.140;2023-01-30T06:47:06;98193.95;;;0.38;76.09
64460;BME280;50828;53.756;21.140;2023-01-30T06:52:14;98193.72;;;0.34;76.18
64460;BME280;50828;53.756;21.140;2023-01-30T06:57:23;98188.11;;;0.31;76.18
64460;BME280;50828;53.756;21.140;2023-01-30T07:02:32;98174.50;;;0.28;76.09
64460;BME280;50828;53.756;21.140;2023-01-30T07:07:40;98170.39;;;0.27;76.27
64460;BME280;50828;53.756;21.140;2023-01-30T07:12:49;98164.05;;;0.25;76.38
64460;BME280;50828;53.756;21.140;2023-01-30T07:17:57;98152.84;;;0.23;76.25
64460;BME280;50828;53.756;21.140;2023-01-30T07:23:06;98146.56;;;0.19;76.13
64460;BME280;50828;53.756;21.140;2023-01-30T07:28:14;98130.08;;;0.14;76.22
64460;BME280;50828;53.756;21.140;2023-01-30T07:33:22;98116.31;;;0.11;76.26
64460;BME280;50828;53.756;21.140;2023-01-30T07:38:30;98109.49;;;0.07;76.59
64460;BME280;50828;53.756;21.140;2023-01-30T07:43:39;98107.29;;;0.07;76.44
64460;BME280;50828;53.756;21.140;2023-01-30T07:48:47;98110.60;;;0.05;76.49
64460;BME280;50828;53.756;21.140;2023-01-30T07:53:56;98102.34;;;0.04;76.41
64460;BME280;50828;53.756;21.140;2023-01-30T07:59:05;98097.88;;;0.03;76.56
64460;BME280;50828;53.756;21.140;2023-01-30T08:04:12;98091.52;;;0.01;76.46
64460;BME280;50828;53.756;21.140;2023-01-30T08:09:20;98087.70;;;0.01;76.79
64460;BME280;50828;53.756;21.140;2023-01-30T08:14:27;98077.53;;;0.00;76.78
64460;BME280;50828;53.756;21.140;2023-01-30T08:19:36;98073.05;;;-0.01;76.69
64460;BME280;50828;53.756;21.140;2023-01-30T08:24:44;98063.68;;;-0.00;76.85
64460;BME280;50828;53.756;21.140;2023-01-30T08:29:53;98057.91;;;0.02;76.80
64460;BME280;50828;53.756;21.140;2023-01-30T08:35:03;98058.88;;;0.04;76.95
64460;BME280;50828;53.756;21.140;2023-01-30T08:40:13;98059.82;;;0.08;76.89
64460;BME280;50828;53.756;21.140;2023-01-30T08:45:22;98057.43;;;0.12;76.84
64460;BME280;50828;53.756;21.140;2023-01-30T08:50:31;98052.11;;;0.16;77.11
64460;BME280;50828;53.756;21.140;2023-01-30T08:55:42;98049.43;;;0.18;76.73
64460;BME280;50828;53.756;21.140;2023-01-30T09:00:51;98040.70;;;0.22;76.88
64460;BME280;50828;53.756;21.140;2023-01-30T09:05:59;98029.02;;;0.24;76.82
64460;BME280;50828;53.756;21.140;2023-01-30T09:11:09;98018.73;;;0.26;76.91
64460;BME280;50828;53.756;21.140;2023-01-30T09:16:16;98009.31;;;0.28;76.54
64460;BME280;50828;53.756;21.140;2023-01-30T09:21:26;98000.97;;;0.30;76.55
64460;BME280;50828;53.756;21.140;2023-01-30T09:26:37;98003.88;;;0.30;76.61
64460;BME280;50828;53.756;21.140;2023-01-30T09:31:51;98007.85;;;0.31;76.67
64460;BME280;50828;53.756;21.140;2023-01-30T09:37:00;97991.74;;;0.31;76.64
64460;BME280;50828;53.756;21.140;2023-01-30T09:42:29;97985.67;;;0.31;76.40
64460;BME280;50828;53.756;21.140;2023-01-30T09:47:48;97985.35;;;0.31;76.42
64460;BME280;50828;53.756;21.140;2023-01-30T09:53:04;97980.61;;;0.33;76.63
64460;BME280;50828;53.756;21.140;2023-01-30T09:58:12;97971.21;;;0.34;76.42
64460;BME280;50828;53.756;21.140;2023-01-30T10:03:30;97969.23;;;0.36;76.36
64460;BME280;50828;53.756;21.140;2023-01-30T10:08:54;97963.81;;;0.38;76.64
64460;BME280;50828;53.756;21.140;2023-01-30T10:14:17;97957.36;;;0.39;76.55
64460;BME280;50828;53.756;21.140;2023-01-30T10:25:25;97955.70;;;0.42;76.45
64460;BME280;50828;53.756;21.140;2023-01-30T10:30:37;97944.77;;;0.43;76.44
64460;BME280;50828;53.756;21.140;2023-01-30T10:35:55;97935.55;;;0.44;76.63
64460;BME280;50828;53.756;21.140;2023-01-30T10:41:14;97931.17;;;0.45;76.73
64460;BME280;50828;53.756;21.140;2023-01-30T10:52:01;97919.67;;;0.47;76.52
64460;BME280;50828;53.756;21.140;2023-01-30T10:57:20;97911.32;;;0.48;76.60
64460;BME280;50828;53.756;21.140;2023-01-30T11:02:38;97904.01;;;0.50;76.74
64460;BME280;50828;53.756;21.140;2023-01-30T11:07:49;97898.20;;;0.53;76.68
64460;BME280;50828;53.756;21.140;2023-01-30T11:12:59;97889.81;;;0.54;76.72
64460;BME280;50828;53.756;21.140;2023-01-30T11:23:48;97881.30;;;0.55;76.52
64460;BME280;50828;53.756;21.140;2023-01-30T11:28:58;97871.42;;;0.55;76.58
64460;BME280;50828;53.756;21.140;2023-01-30T11:34:14;97868.41;;;0.58;76.77
64460;BME280;50828;53.756;21.140;2023-01-30T11:39:29;97871.34;;;0.58;76.65
64460;BME280;50828;53.756;21.140;2023-01-30T11:44:41;97869.75;;;0.59;76.71
64460;BME280;50828;53.756;21.140;2023-01-30T11:49:51;97874.73;;;0.60;76.81
64460;BME280;50828;53.756;21.140;2023-01-30T11:55:20;97865.12;;;0.62;76.98
64460;BME280;50828;53.756;21.140;2023-01-30T12:00:38;97867.13;;;0.64;77.11
64460;BME280;50828;53.756;21.140;2023-01-30T12:05:47;97858.58;;;0.66;77.20
64460;BME280;50828;53.756;21.140;2023-01-30T12:10:57;97869.27;;;0.67;77.28
64460;BME280;50828;53.756;21.140;2023-01-30T12:16:16;97871.66;;;0.68;77.22
64460;BME280;50828;53.756;21.140;2023-01-30T12:21:37;97867.84;;;0.69;77.34
64460;BME280;50828;53.756;21.140;2023-01-30T12:26:52;97858.37;;;0.67;77.38
64460;BME280;50828;53.756;21.140;2023-01-30T12:32:08;97849.34;;;0.67;77.59
64460;BME280;50828;53.756;21.140;2023-01-30T12:37:31;97843.39;;;0.69;77.70
64460;BME280;50828;53.756;21.140;2023-01-30T12:43:05;97845.05;;;0.71;77.88
64460;BME280;50828;53.756;21.140;2023-01-30T12:48:32;97844.91;;;0.75;78.01
64460;BME280;50828;53.756;21.140;2023-01-30T12:54:00;97842.33;;;0.79;78.35
64460;BME280;50828;53.756;21.140;2023-01-30T12:59:16;97829.64;;;0.85;78.27
64460;BME280;50828;53.756;21.140;2023-01-30T13:04:36;97821.32;;;0.89;78.24
64460;BME280;50828;53.756;21.140;2023-01-30T13:10:13;97817.98;;;0.96;78.36
64460;BME280;50828;53.756;21.140;2023-01-30T13:15:29;97816.41;;;1.01;78.16
64460;BME280;50828;53.756;21.140;2023-01-30T13:20:53;97814.20;;;1.04;77.75
64460;BME280;50828;53.756;21.140;2023-01-30T13:26:07;97823.83;;;1.05;77.79
64460;BME280;50828;53.756;21.140;2023-01-30T13:31:20;97831.82;;;1.05;77.54
64460;BME280;50828;53.756;21.140;2023-01-30T13:36:36;97821.94;;;1.05;77.55
64460;BME280;50828;53.756;21.140;2023-01-30T13:42:04;97809.80;;;1.05;77.67
64460;BME280;50828;53.756;21.140;2023-01-30T13:47:21;97809.48;;;1.05;77.38
64460;BME280;50828;53.756;21.140;2023-01-30T13:52:36;97816.08;;;1.05;77.71
64460;BME280;50828;53.756;21.140;2023-01-30T13:57:52;97816.30;;;1.08;78.05
64460;BME280;50828;53.756;21.140;2023-01-30T14:03:24;97818.90;;;1.12;77.92
64460;BME280;50828;53.756;21.140;2023-01-30T14:08:49;97823.44;;;1.16;77.68
64460;BME280;50828;53.756;21.140;2023-01-30T14:14:00;97826.94;;;1.20;77.80
64460;BME280;50828;53.756;21.140;2023-01-30T14:19:27;97821.98;;;1.22;77.50
64460;BME280;50828;53.756;21.140;2023-01-30T14:24:37;97819.30;;;1.24;77.57
64460;BME280;50828;53.756;21.140;2023-01-30T14:29:58;97814.11;;;1.29;77.73
64460;BME280;50828;53.756;21.140;2023-01-30T14:35:26;97813.42;;;1.33;77.68
64460;BME280;50828;53.756;21.140;2023-01-30T14:40:40;97827.16;;;1.36;77.62
64460;BME280;50828;53.756;21.140;2023-01-30T14:45:51;97830.25;;;1.41;77.65
64460;BME280;50828;53.756;21.140;2023-01-30T14:51:20;97827.71;;;1.44;77.49
64460;BME280;50828;53.756;21.140;2023-01-30T14:56:41;97833.79;;;1.48;77.46
64460;BME280;50828;53.756;21.140;2023-01-30T15:02:05;97828.78;;;1.52;77.41
64460;BME280;50828;53.756;21.140;2023-01-30T15:07:13;97820.81;;;1.56;77.46
64460;BME280;50828;53.756;21.140;2023-01-30T15:12:45;97825.80;;;1.58;77.38
64460;BME280;50828;53.756;21.140;2023-01-30T15:18:09;97817.86;;;1.57;77.39
64460;BME280;50828;53.756;21.140;2023-01-30T15:23:39;97823.40;;;1.57;77.15
64460;BME280;50828;53.756;21.140;2023-01-30T15:29:03;97827.59;;;1.56;77.11
64460;BME280;50828;53.756;21.140;2023-01-30T15:34:22;97840.60;;;1.56;77.40
64460;BME280;50828;53.756;21.140;2023-01-30T15:39:32;97853.04;;;1.57;77.39
64460;BME280;50828;53.756;21.140;2023-01-30T15:44:53;97861.46;;;1.59;77.41
64460;BME280;50828;53.756;21.140;2023-01-30T15:50:09;97862.11;;;1.61;77.65
64460;BME280;50828;53.756;21.140;2023-01-30T15:55:21;97870.62;;;1.65;77.58
64460;BME280;50828;53.756;21.140;2023-01-30T16:00:33;97871.35;;;1.68;77.51
64460;BME280;50828;53.756;21.140;2023-01-30T16:05:49;97881.11;;;1.72;77.60
64460;BME280;50828;53.756;21.140;2023-01-30T16:10:58;97875.09;;;1.75;77.35
64460;BME280;50828;53.756;21.140;2023-01-30T16:16:09;97876.21;;;1.77;77.44
64460;BME280;50828;53.756;21.140;2023-01-30T16:21:25;97887.56;;;1.80;77.26
64460;BME280;50828;53.756;21.140;2023-01-30T16:26:39;97900.30;;;1.82;77.13
64460;BME280;50828;53.756;21.140;2023-01-30T16:31:50;97900.96;;;1.83;77.29
64460;BME280;50828;53.756;21.140;2023-01-30T16:37:04;97905.84;;;1.82;77.08
64460;BME280;50828;53.756;21.140;2023-01-30T16:42:25;97916.09;;;1.82;77.17
64460;BME280;50828;53.756;21.140;2023-01-30T16:47:34;97907.80;;;1.81;77.12
64460;BME280;50828;53.756;21.140;2023-01-30T16:52:49;97912.02;;;1.80;77.11
64460;BME280;50828;53.756;21.140;2023-01-30T16:58:01;97912.17;;;1.80;77.18
64460;BME280;50828;53.756;21.140;2023-01-30T17:03:23;97908.37;;;1.80;77.19
64460;BME280;50828;53.756;21.140;2023-01-30T17:08:50;97907.67;;;1.80;77.16
64460;BME280;50828;53.756;21.140;2023-01-30T17:14:21;97907.77;;;1.78;77.13
64460;BME280;50828;53.756;21.140;2023-01-30T17:19:30;97914.46;;;1.75;77.15
64460;BME280;50828;53.756;21.140;2023-01-30T17:24:39;97906.54;;;1.74;77.12
64460;BME280;50828;53.756;21.140;2023-01-30T17:29:48;97907.56;;;1.74;77.27
64460;BME280;50828;53.756;21.140;2023-01-30T17:34:56;97910.69;;;1.74;77.21
64460;BME280;50828;53.756;21.140;2023-01-30T17:40:08;97915.04;;;1.74;77.31
64460;BME280;50828;53.756;21.140;2023-01-30T17:45:18;97912.23;;;1.75;77.23
64460;BME280;50828;53.756;21.140;2023-01-30T17:50:26;97920.69;;;1.76;77.31
64460;BME280;50828;53.756;21.140;2023-01-30T17:55:35;97922.59;;;1.76;77.29
64460;BME280;50828;53.756;21.140;2023-01-30T18:00:43;97918.76;;;1.76;77.27
64460;BME280;50828;53.756;21.140;2023-01-30T18:05:52;97915.77;;;1.77;77.37
64460;BME280;50828;53.756;21.140;2023-01-30T18:11:01;97911.00;;;1.79;77.37
64460;BME280;50828;53.756;21.140;2023-01-30T18:16:16;97917.51;;;1.82;77.45
64460;BME280;50828;53.756;21.140;2023-01-30T18:21:27;97920.89;;;1.84;77.49
64460;BME280;50828;53.756;21.140;2023-01-30T18:26:35;97922.59;;;1.85;77.38
64460;BME280;50828;53.756;21.140;2023-01-30T18:31:43;97918.90;;;1.86;77.36
64460;BME280;50828;53.756;21.140;2023-01-30T18:36:52;97932.98;;;1.85;77.21
64460;BME280;50828;53.756;21.140;2023-01-30T18:42:01;97940.14;;;1.85;77.46
64460;BME280;50828;53.756;21.140;2023-01-30T18:47:10;97947.07;;;1.84;77.42
64460;BME280;50828;53.756;21.140;2023-01-30T18:52:18;97953.81;;;1.85;77.41
64460;BME280;50828;53.756;21.140;2023-01-30T18:57:27;97964.84;;;1.87;77.54
64460;BME280;50828;53.756;21.140;2023-01-30T19:02:37;97974.73;;;1.88;77.35
64460;BME280;50828;53.756;21.140;2023-01-30T19:07:46;97975.58;;;1.88;77.26
64460;BME280;50828;53.756;21.140;2023-01-30T19:12:55;97979.74;;;1.88;77.39
64460;BME280;50828;53.756;21.140;2023-01-30T19:18:20;97987.20;;;1.89;77.44
64460;BME280;50828;53.756;21.140;2023-01-30T19:23:28;97996.83;;;1.90;77.26
64460;BME280;50828;53.756;21.140;2023-01-30T19:28:38;98002.33;;;1.92;77.32
64460;BME280;50828;53.756;21.140;2023-01-30T19:33:56;98005.08;;;1.92;77.23
64460;BME280;50828;53.756;21.140;2023-01-30T19:39:06;98010.94;;;1.94;77.30
64460;BME280;50828;53.756;21.140;2023-01-30T19:44:17;98015.20;;;1.96;77.27
64460;BME280;50828;53.756;21.140;2023-01-30T19:49:27;98024.70;;;1.97;77.20
64460;BME280;50828;53.756;21.140;2023-01-30T19:54:36;98025.91;;;1.97;77.14
64460;BME280;50828;53.756;21.140;2023-01-30T19:59:44;98024.10;;;1.99;77.23
64460;BME280;50828;53.756;21.140;2023-01-30T20:04:52;98019.88;;;2.01;77.07
64460;BME280;50828;53.756;21.140;2023-01-30T20:10:00;98024.82;;;2.02;76.95
64460;BME280;50828;53.756;21.140;2023-01-30T20:15:09;98022.92;;;2.02;77.03
64460;BME280;50828;53.756;21.140;2023-01-30T20:20:17;98023.77;;;2.04;76.98
64460;BME280;50828;53.756;21.140;2023-01-30T20:25:25;98025.86;;;2.03;76.87
64460;BME280;50828;53.756;21.140;2023-01-30T20:30:33;98024.09;;;2.04;76.89
64460;BME280;50828;53.756;21.140;2023-01-30T20:35:41;98020.25;;;2.05;76.87
64460;BME280;50828;53.756;21.140;2023-01-30T20:40:50;98024.75;;;2.05;76.87
64460;BME280;50828;53.756;21.140;2023-01-30T20:46:05;98028.23;;;2.05;76.79
64460;BME280;50828;53.756;21.140;2023-01-30T20:51:15;98033.08;;;2.05;76.69
64460;BME280;50828;53.756;21.140;2023-01-30T20:56:24;98041.95;;;2.04;76.83
64460;BME280;50828;53.756;21.140;2023-01-30T21:01:33;98045.41;;;2.05;76.68
64460;BME280;50828;53.756;21.140;2023-01-30T21:06:41;98044.55;;;2.05;76.59
64460;BME280;50828;53.756;21.140;2023-01-30T21:11:52;98045.20;;;2.06;76.80
64460;BME280;50828;53.756;21.140;2023-01-30T21:17:01;98048.80;;;2.07;76.74
64460;BME280;50828;53.756;21.140;2023-01-30T21:22:10;98049.84;;;2.07;76.76
64460;BME280;50828;53.756;21.140;2023-01-30T21:27:19;98054.80;;;2.09;76.60
64460;BME280;50828;53.756;21.140;2023-01-30T21:32:27;98057.73;;;2.09;76.57
64460;BME280;50828;53.756;21.140;2023-01-30T21:37:36;98066.41;;;2.10;76.72
64460;BME280;50828;53.756;21.140;2023-01-30T21:43:06;98064.48;;;2.10;76.67
64460;BME280;50828;53.756;21.140;2023-01-30T21:48:21;98064.09;;;2.12;76.60
64460;BME280;50828;53.756;21.140;2023-01-30T21:53:30;98074.25;;;2.14;76.61
64460;BME280;50828;53.756;21.140;2023-01-30T21:58:38;98077.14;;;2.15;76.60
64460;BME280;50828;53.756;21.140;2023-01-30T22:03:47;98088.09;;;2.15;76.53
64460;BME280;50828;53.756;21.140;2023-01-30T22:08:56;98101.85;;;2.14;76.57
64460;BME280;50828;53.756;21.140;2023-01-30T22:14:05;98109.52;;;2.13;76.66
64460;BME280;50828;53.756;21.140;2023-01-30T22:19:12;98112.48;;;2.13;76.49
64460;BME280;50828;53.756;21.140;2023-01-30T22:24:20;98125.05;;;2.11;76.67
64460;BME280;50828;53.756;21.140;2023-01-30T22:29:28;98121.88;;;2.08;76.64
64460;BME280;50828;53.756;21.140;2023-01-30T22:34:35;98122.95;;;2.08;76.72
64460;BME280;50828;53.756;21.140;2023-01-30T22:39:43;98126.44;;;2.06;76.79
64460;BME280;50828;53.756;21.140;2023-01-30T22:44:51;98133.77;;;2.06;76.79
64460;BME280;50828;53.756;21.140;2023-01-30T22:50:00;98144.62;;;2.04;76.72
64460;BME280;50828;53.756;21.140;2023-01-30T22:55:10;98154.03;;;2.02;76.67
64460;BME280;50828;53.756;21.140;2023-01-30T23:00:20;98162.59;;;2.01;76.96
64460;BME280;50828;53.756;21.140;2023-01-30T23:05:28;98170.73;;;2.01;77.01
64460;BME280;50828;53.756;21.140;2023-01-30T23:10:39;98165.42;;;2.04;76.97
64460;BME280;50828;53.756;21.140;2023-01-30T23:15:47;98165.89;;;2.06;77.04
64460;BME280;50828;53.756;21.140;2023-01-30T23:20:56;98172.55;;;2.09;77.19
64460;BME280;50828;53.756;21.140;2023-01-30T23:26:04;98178.23;;;2.10;77.24
64460;BME280;50828;53.756;21.140;2023-01-30T23:31:16;98182.69;;;2.12;77.23
64460;BME280;50828;53.756;21.140;2023-01-30T23:36:23;98184.17;;;2.14;77.02
64460;BME280;50828;53.756;21.140;2023-01-30T23:41:34;98191.23;;;2.15;77.24
64460;BME280;50828;53.756;21.140;2023-01-30T23:46:42;98193.63;;;2.16;77.08
64460;BME280;50828;53.756;21.140;2023-01-30T23:51:51;98200.20;;;2.17;76.95
64460;BME280;50828;53.756;21.140;2023-01-30T23:56:58;98208.44;;;2.20;77.19
